Mill Creek, Indiana
Current Conditions -  °F | °C
As of 7:15 AM on Monday 22 Dec 2014 (Local Time) from KPPO Reporting Station
Haze Haze  
Wind Chill: 26°   Ceiling: 10000
Heat Index: 32°   Visibility: 5mi
Dew Point: 29°   Wind: 6mph
Humidity: 91%   Direction: 110°ESE
Pressure: 29.97"   Gusts: NA
Location:  41.61°N, 86.54°W
Report Text: KPPO 221315Z AUTO 11005KT 5SM BR OVC100 00/M01 A2997 RMK AO2 T10021015
Loading
Personal Weather Stations






























Interactive Weather Map New forecast layout! Learn more

10-Day Weather Forecast

Advertisements
Track Severe Weather on mobile